Time,TemperatureF,DewpointF,PressureIn,WindDirection,WindDirectionDegrees,WindSpeedMPH,WindSpeedGustMPH,Humidity,HourlyPrecipIn,Conditions,Clouds,dailyrainin,SoftwareType,DateUTC
2013-06-18 00:12:00,42.0,30.0,29.92,West,276,1.0,1.0,63,0.00,,,0.00,weatherlink.com 1.10,2013-06-18 06:12:00,
2013-06-18 00:27:00,41.1,30.0,29.92,NNW,342,1.0,3.0,64,0.00,,,0.00,weatherlink.com 1.10,2013-06-18 06:27:00,
2013-06-18 00:42:00,39.7,29.0,29.92,West,280,0.0,2.0,67,0.00,,,0.00,weatherlink.com 1.10,2013-06-18 06:42:00,
2013-06-18 00:57:00,39.2,29.0,29.93,West,266,0.0,0.0,68,0.00,,,0.00,weatherlink.com 1.10,2013-06-18 06:57:00,
2013-06-18 01:12:00,38.8,30.0,29.94,WSW,243,0.0,0.0,71,0.00,,,0.00,weatherlink.com 1.10,2013-06-18 07:12:00,
2013-06-18 01:27:00,37.7,29.0,29.94,NW,325,0.0,0.0,72,0.00,,,0.00,weatherlink.com 1.10,2013-06-18 07:27:00,
2013-06-18 01:42:00,37.6,29.0,29.94,NW,319,0.0,0.0,72,0.00,,,0.00,weatherlink.com 1.10,2013-06-18 07:42:00,
2013-06-18 01:58:00,37.0,29.0,29.94,West,278,0.0,0.0,74,0.00,,,0.00,weatherlink.com 1.10,2013-06-18 07:58:00,
2013-06-18 02:12:00,37.3,29.0,29.94,North,9,0.0,4.0,73,0.00,,,0.00,weatherlink.com 1.10,2013-06-18 08:12:00,
2013-06-18 02:27:00,37.5,29.0,29.95,NW,322,0.0,0.0,72,0.00,,,0.00,weatherlink.com 1.10,2013-06-18 08:27:00,
2013-06-18 02:42:00,36.1,28.0,29.95,WNW,294,0.0,0.0,73,0.00,,,0.00,weatherlink.com 1.10,2013-06-18 08:42:00,
2013-06-18 02:57:00,35.7,28.0,29.95,West,262,0.0,0.0,74,0.00,,,0.00,weatherlink.com 1.10,2013-06-18 08:57:00,
2013-06-18 03:12:00,34.9,28.0,29.95,North,11,0.0,0.0,75,0.00,,,0.00,weatherlink.com 1.10,2013-06-18 09:12:00,
2013-06-18 03:27:00,33.3,28.0,29.95,NNW,328,0.0,1.0,80,0.00,,,0.00,weatherlink.com 1.10,2013-06-18 09:27:00,
2013-06-18 03:43:00,32.8,27.0,29.96,NW,304,0.0,0.0,80,0.00,,,0.00,weatherlink.com 1.10,2013-06-18 09:43:00,
2013-06-18 03:58:00,33.3,28.0,29.96,WNW,286,1.0,2.0,80,0.00,,,0.00,weatherlink.com 1.10,2013-06-18 09:58:00,
2013-06-18 04:13:00,32.0,27.0,29.96,WNW,290,0.0,1.0,81,0.00,,,0.00,weatherlink.com 1.10,2013-06-18 10:13:00,
2013-06-18 04:28:00,30.8,27.0,29.97,WNW,285,0.0,0.0,84,0.00,,,0.00,weatherlink.com 1.10,2013-06-18 10:28:00,
2013-06-18 04:43:00,31.1,27.0,29.97,NW,316,0.0,0.0,84,0.00,,,0.00,weatherlink.com 1.10,2013-06-18 10:43:00,
2013-06-18 04:58:00,32.3,27.0,29.98,WSW,258,0.0,0.0,82,0.00,,,0.00,weatherlink.com 1.10,2013-06-18 10:58:00,
2013-06-18 05:13:00,30.5,25.0,29.98,NE,53,0.0,0.0,81,0.00,,,0.00,weatherlink.com 1.10,2013-06-18 11:13:00,
2013-06-18 05:28:00,30.7,27.0,29.99,NE,53,0.0,0.0,85,0.00,,,0.00,weatherlink.com 1.10,2013-06-18 11:28:00,
2013-06-18 05:43:00,30.5,27.0,30.00,NW,314,0.0,0.0,85,0.00,,,0.00,weatherlink.com 1.10,2013-06-18 11:43:00,
2013-06-18 05:58:00,30.2,27.0,30.00,WNW,287,0.0,0.0,87,0.00,,,0.00,weatherlink.com 1.10,2013-06-18 11:58:00,
2013-06-18 06:13:00,29.8,26.0,30.01,NW,308,0.0,0.0,86,0.00,,,0.00,weatherlink.com 1.10,2013-06-18 12:13:00,
2013-06-18 06:28:00,31.1,27.0,30.02,NNW,338,0.0,2.0,85,0.00,,,0.00,weatherlink.com 1.10,2013-06-18 12:28:00,
2013-06-18 06:43:00,31.9,28.0,30.02,NNW,334,1.0,2.0,84,0.00,,,0.00,weatherlink.com 1.10,2013-06-18 12:43:00,
2013-06-18 06:58:00,34.8,29.0,30.02,NW,322,0.0,3.0,79,0.00,,,0.00,weatherlink.com 1.10,2013-06-18 12:58:00,
2013-06-18 07:13:00,37.3,30.0,30.01,SSW,212,0.0,0.0,75,0.00,,,0.00,weatherlink.com 1.10,2013-06-18 13:13:00,
2013-06-18 07:28:00,40.8,31.0,30.01,NW,308,0.0,0.0,69,0.00,,,0.00,weatherlink.com 1.10,2013-06-18 13:28:00,
2013-06-18 07:43:00,43.7,32.0,30.00,SE,144,0.0,0.0,63,0.00,,,0.00,weatherlink.com 1.10,2013-06-18 13:43:00,
2013-06-18 07:58:00,45.9,31.0,29.99,ESE,112,1.0,2.0,57,0.00,,,0.00,weatherlink.com 1.10,2013-06-18 13:58:00,
2013-06-18 08:13:00,48.2,32.0,29.98,SE,126,0.0,2.0,53,0.00,,,0.00,weatherlink.com 1.10,2013-06-18 14:13:00,
2013-06-18 08:28:00,50.4,31.0,29.98,North,349,0.0,0.0,48,0.00,,,0.00,weatherlink.com 1.10,2013-06-18 14:28:00,
2013-06-18 08:43:00,50.7,31.0,29.98,WNW,302,0.0,0.0,47,0.00,,,0.00,weatherlink.com 1.10,2013-06-18 14:43:00,
2013-06-18 08:58:00,52.8,31.0,29.97,SE,127,0.0,0.0,44,0.00,,,0.00,weatherlink.com 1.10,2013-06-18 14:58:00,
2013-06-18 09:13:00,55.2,32.0,29.96,South,190,1.0,4.0,42,0.00,,,0.00,weatherlink.com 1.10,2013-06-18 15:13:00,
2013-06-18 09:28:00,56.1,33.0,29.94,SSW,212,1.0,5.0,42,0.00,,,0.00,weatherlink.com 1.10,2013-06-18 15:28:00,
2013-06-18 09:44:00,57.0,34.0,29.93,SSW,198,3.0,8.0,42,0.00,,,0.00,weatherlink.com 1.10,2013-06-18 15:44:00,
2013-06-18 09:59:00,59.2,35.0,29.91,SE,139,6.0,7.0,40,0.00,,,0.00,weatherlink.com 1.10,2013-06-18 15:59:00,
2013-06-18 10:14:00,60.3,36.0,29.90,South,184,2.0,8.0,40,0.00,,,0.00,weatherlink.com 1.10,2013-06-18 16:14:00,
2013-06-18 10:29:00,62.0,37.0,29.89,SE,145,2.0,9.0,39,0.00,,,0.00,weatherlink.com 1.10,2013-06-18 16:29:00,
2013-06-18 10:44:00,64.0,37.0,29.88,SSW,201,4.0,8.0,37,0.00,,,0.00,weatherlink.com 1.10,2013-06-18 16:44:00,
2013-06-18 10:59:00,64.6,38.0,29.87,SSE,148,1.0,8.0,37,0.00,,,0.00,weatherlink.com 1.10,2013-06-18 16:59:00,
2013-06-18 11:14:00,67.9,38.0,29.86,SSW,197,2.0,7.0,34,0.00,,,0.00,weatherlink.com 1.10,2013-06-18 17:14:00,
2013-06-18 11:29:00,68.8,36.0,29.85,ENE,62,7.0,12.0,30,0.00,,,0.00,weatherlink.com 1.10,2013-06-18 17:29:00,
2013-06-18 11:44:00,70.1,32.0,29.84,SE,139,18.0,22.0,24,0.00,,,0.00,weatherlink.com 1.10,2013-06-18 17:44:00,
2013-06-18 11:59:00,69.5,30.0,29.84,SE,136,15.0,21.0,23,0.00,,,0.00,weatherlink.com 1.10,2013-06-18 17:59:00,
2013-06-18 12:14:00,69.8,32.0,29.84,South,191,8.0,19.0,25,0.00,,,0.00,weatherlink.com 1.10,2013-06-18 18:14:00,
2013-06-18 12:29:00,71.1,30.0,29.83,SE,140,14.0,22.0,22,0.00,,,0.00,weatherlink.com 1.10,2013-06-18 18:29:00,
2013-06-18 12:44:00,70.7,31.0,29.83,SSE,164,20.0,22.0,23,0.00,,,0.00,weatherlink.com 1.10,2013-06-18 18:44:00,
2013-06-18 12:59:00,70.9,31.0,29.82,SE,139,15.0,25.0,23,0.00,,,0.00,weatherlink.com 1.10,2013-06-18 18:59:00,
2013-06-18 13:14:00,72.2,33.0,29.82,SSE,151,6.0,17.0,24,0.00,,,0.00,weatherlink.com 1.10,2013-06-18 19:14:00,
2013-06-18 13:29:00,72.2,32.0,29.80,South,172,6.0,20.0,23,0.00,,,0.00,weatherlink.com 1.10,2013-06-18 19:29:00,
2013-06-18 13:44:00,73.7,34.0,29.80,SSW,210,8.0,21.0,23,0.00,,,0.00,weatherlink.com 1.10,2013-06-18 19:44:00,
2013-06-18 13:59:00,73.6,31.0,29.80,South,191,4.0,25.0,21,0.00,,,0.00,weatherlink.com 1.10,2013-06-18 19:59:00,
2013-06-18 14:14:00,72.9,33.0,29.80,WSW,243,10.0,21.0,23,0.00,,,0.00,weatherlink.com 1.10,2013-06-18 20:14:00,
2013-06-18 14:29:00,72.0,34.0,29.80,South,179,18.0,27.0,25,0.00,,,0.00,weatherlink.com 1.10,2013-06-18 20:29:00,
2013-06-18 14:44:00,70.9,31.0,29.79,South,184,13.0,24.0,23,0.00,,,0.00,weatherlink.com 1.10,2013-06-18 20:44:00,
2013-06-18 15:00:00,72.6,32.0,29.78,WSW,243,7.0,26.0,22,0.00,,,0.00,weatherlink.com 1.10,2013-06-18 21:00:00,
2013-06-18 15:15:00,73.0,32.0,29.77,SW,214,8.0,22.0,22,0.00,,,0.00,weatherlink.com 1.10,2013-06-18 21:15:00,
2013-06-18 15:30:00,73.3,30.0,29.78,WSW,237,13.0,20.0,20,0.00,,,0.00,weatherlink.com 1.10,2013-06-18 21:30:00,
2013-06-18 15:45:00,73.6,31.0,29.77,West,262,5.0,16.0,21,0.00,,,0.00,weatherlink.com 1.10,2013-06-18 21:45:00,
2013-06-18 16:00:00,73.3,30.0,29.77,West,274,10.0,22.0,20,0.00,,,0.00,weatherlink.com 1.10,2013-06-18 22:00:00,
2013-06-18 16:15:00,73.5,31.0,29.77,SSW,212,7.0,21.0,21,0.00,,,0.00,weatherlink.com 1.10,2013-06-18 22:15:00,
2013-06-18 16:30:00,72.7,30.0,29.75,South,187,10.0,22.0,21,0.00,,,0.00,weatherlink.com 1.10,2013-06-18 22:30:00,
2013-06-18 16:45:00,73.0,32.0,29.75,WSW,246,10.0,19.0,22,0.00,,,0.00,weatherlink.com 1.10,2013-06-18 22:45:00,
2013-06-18 17:00:00,71.7,30.0,29.74,WSW,241,14.0,22.0,21,0.00,,,0.00,weatherlink.com 1.10,2013-06-18 23:00:00,
2013-06-18 17:15:00,70.5,32.0,29.73,WSW,238,11.0,18.0,24,0.00,,,0.00,weatherlink.com 1.10,2013-06-18 23:15:00,
2013-06-18 17:30:00,71.7,32.0,29.71,SSE,152,15.0,20.0,23,0.00,,,0.00,weatherlink.com 1.10,2013-06-18 23:30:00,
2013-06-18 17:45:00,72.2,31.0,29.71,SW,214,11.0,26.0,22,0.00,,,0.00,weatherlink.com 1.10,2013-06-18 23:45:00,
2013-06-18 18:00:00,73.5,30.0,29.71,SSW,210,10.0,27.0,20,0.00,,,0.00,weatherlink.com 1.10,2013-06-19 00:00:00,
2013-06-18 18:15:00,73.1,15.0,29.71,WNW,284,14.0,25.0,11,0.00,,,0.00,weatherlink.com 1.10,2013-06-19 00:15:00,
2013-06-18 18:30:00,72.6,19.0,29.71,South,189,9.0,13.0,13,0.00,,,0.00,weatherlink.com 1.10,2013-06-19 00:30:00,
2013-06-18 18:45:00,72.7,15.0,29.71,West,263,4.0,11.0,11,0.00,,,0.00,weatherlink.com 1.10,2013-06-19 00:45:00,
2013-06-18 19:00:00,72.2,5.0,29.72,WSW,238,1.0,16.0,7,0.00,,,0.00,weatherlink.com 1.10,2013-06-19 01:00:00,
2013-06-18 19:15:00,72.4,8.0,29.72,WSW,249,4.0,9.0,8,0.00,,,0.00,weatherlink.com 1.10,2013-06-19 01:15:00,
2013-06-18 19:30:00,71.2,9.0,29.72,SE,142,7.0,9.0,9,0.00,,,0.00,weatherlink.com 1.10,2013-06-19 01:30:00,
2013-06-18 19:45:00,70.1,11.0,29.73,WNW,282,4.0,17.0,10,0.00,,,0.00,weatherlink.com 1.10,2013-06-19 01:45:00,
2013-06-18 20:00:00,68.8,12.0,29.73,SSE,155,3.0,8.0,11,0.00,,,0.00,weatherlink.com 1.10,2013-06-19 02:00:00,
2013-06-18 20:15:00,62.4,15.0,29.73,SE,136,1.0,5.0,16,0.00,,,0.00,weatherlink.com 1.10,2013-06-19 02:15:00,
2013-06-18 20:30:00,56.5,16.0,29.73,SSE,166,2.0,3.0,20,0.00,,,0.00,weatherlink.com 1.10,2013-06-19 02:30:00,
2013-06-18 20:45:00,56.3,16.0,29.73,ESE,121,3.0,7.0,20,0.00,,,0.00,weatherlink.com 1.10,2013-06-19 02:45:00,
2013-06-18 21:00:00,54.0,14.0,29.74,SE,145,4.0,7.0,20,0.00,,,0.00,weatherlink.com 1.10,2013-06-19 03:00:00,
2013-06-18 21:15:00,56.7,13.0,29.75,WSW,252,0.0,4.0,18,0.00,,,0.00,weatherlink.com 1.10,2013-06-19 03:15:00,
2013-06-18 21:30:00,55.3,12.0,29.75,WSW,243,3.0,3.0,18,0.00,,,0.00,weatherlink.com 1.10,2013-06-19 03:30:00,
2013-06-18 21:45:00,53.4,15.0,29.76,NW,314,2.0,5.0,22,0.00,,,0.00,weatherlink.com 1.10,2013-06-19 03:45:00,
2013-06-18 22:00:00,51.2,15.0,29.77,NW,305,3.0,4.0,24,0.00,,,0.00,weatherlink.com 1.10,2013-06-19 04:00:00,
2013-06-18 22:15:00,48.7,17.0,29.77,NW,322,2.0,4.0,28,0.00,,,0.00,weatherlink.com 1.10,2013-06-19 04:15:00,
2013-06-18 22:30:00,46.7,16.0,29.78,NNW,328,5.0,6.0,29,0.00,,,0.00,weatherlink.com 1.10,2013-06-19 04:30:00,
2013-06-18 22:45:00,45.5,16.0,29.79,NW,318,2.0,4.0,30,0.00,,,0.00,weatherlink.com 1.10,2013-06-19 04:45:00,
2013-06-18 23:00:00,45.5,15.0,29.79,NW,324,2.0,6.0,29,0.00,,,0.00,weatherlink.com 1.10,2013-06-19 05:00:00,
2013-06-18 23:15:00,45.3,16.0,29.79,West,281,0.0,4.0,31,0.00,,,0.00,weatherlink.com 1.10,2013-06-19 05:15:00,
2013-06-18 23:30:00,43.7,16.0,29.79,WNW,302,0.0,3.0,33,0.00,,,0.00,weatherlink.com 1.10,2013-06-19 05:30:00,
2013-06-18 23:45:00,43.8,14.0,29.79,NNW,348,1.0,3.0,30,0.00,,,0.00,weatherlink.com 1.10,2013-06-19 05:45:00,